Terminal Aerodrome Forecast
Issued by NWS Buffalo, NY

Home | Current Version | Previous Version | Text Only | Print | Product List | Glossary On
Versions: 1 2 3 4 5 6 7 8 9 10 11 12 13 14 15 16 17 18 19 20 21 22 23 24 25
000
FTUS41 KBUF 251739
TAFBUF
TAF
KBUF 251739Z 2518/2618 24015KT P6SM SCT035 BKN050
     FM252300 25007KT P6SM VCTS BKN035CB BKN050
     FM260300 22004KT 4SM BR BKN030
     FM260800 VRB03KT 4SM BR BKN007
     FM261400 24005KT P6SM FEW250=

USA.gov is the U.S. government's official web portal to all federal, state and local government web resources and services.